sensor_id;sensor_type;location;lat;lon;timestamp;P1;durP1;ratioP1;P2;durP2;ratioP2
6531;SDS011;3299;42.004;24.868;2023-12-20T00:02:13;10.18;;;5.55;;
6531;SDS011;3299;42.004;24.868;2023-12-20T00:04:38;10.18;;;6.95;;
6531;SDS011;3299;42.004;24.868;2023-12-20T00:07:03;8.30;;;6.38;;
6531;SDS011;3299;42.004;24.868;2023-12-20T00:09:29;6.55;;;4.75;;
6531;SDS011;3299;42.004;24.868;2023-12-20T00:11:54;6.40;;;4.80;;
6531;SDS011;3299;42.004;24.868;2023-12-20T00:14:20;8.45;;;6.82;;
6531;SDS011;3299;42.004;24.868;2023-12-20T00:16:45;8.45;;;6.30;;
6531;SDS011;3299;42.004;24.868;2023-12-20T00:19:10;7.90;;;5.30;;
6531;SDS011;3299;42.004;24.868;2023-12-20T00:21:36;7.95;;;4.82;;
6531;SDS011;3299;42.004;24.868;2023-12-20T00:24:01;7.03;;;4.82;;
6531;SDS011;3299;42.004;24.868;2023-12-20T00:26:26;7.28;;;4.88;;
6531;SDS011;3299;42.004;24.868;2023-12-20T00:28:53;3.38;;;3.17;;
6531;SDS011;3299;42.004;24.868;2023-12-20T00:31:18;3.47;;;3.17;;
6531;SDS011;3299;42.004;24.868;2023-12-20T00:33:44;6.35;;;4.15;;
6531;SDS011;3299;42.004;24.868;2023-12-20T00:36:11;6.35;;;4.93;;
6531;SDS011;3299;42.004;24.868;2023-12-20T00:38:36;6.65;;;4.45;;
6531;SDS011;3299;42.004;24.868;2023-12-20T00:41:02;8.40;;;4.68;;
6531;SDS011;3299;42.004;24.868;2023-12-20T00:43:27;6.70;;;4.68;;
6531;SDS011;3299;42.004;24.868;2023-12-20T00:45:53;4.78;;;4.25;;
6531;SDS011;3299;42.004;24.868;2023-12-20T00:48:18;5.82;;;4.55;;
6531;SDS011;3299;42.004;24.868;2023-12-20T00:50:43;5.47;;;4.65;;
6531;SDS011;3299;42.004;24.868;2023-12-20T00:53:09;4.93;;;4.22;;
6531;SDS011;3299;42.004;24.868;2023-12-20T00:55:34;7.72;;;5.10;;
6531;SDS011;3299;42.004;24.868;2023-12-20T00:57:59;7.78;;;5.30;;
6531;SDS011;3299;42.004;24.868;2023-12-20T01:00:25;8.38;;;6.32;;
6531;SDS011;3299;42.004;24.868;2023-12-20T01:02:50;10.13;;;6.10;;
6531;SDS011;3299;42.004;24.868;2023-12-20T01:05:16;7.82;;;5.53;;
6531;SDS011;3299;42.004;24.868;2023-12-20T01:07:43;7.40;;;5.57;;
6531;SDS011;3299;42.004;24.868;2023-12-20T01:10:08;11.27;;;7.25;;
6531;SDS011;3299;42.004;24.868;2023-12-20T01:12:35;11.43;;;6.38;;
6531;SDS011;3299;42.004;24.868;2023-12-20T01:15:01;9.65;;;5.80;;
6531;SDS011;3299;42.004;24.868;2023-12-20T01:17:26;10.15;;;6.38;;
6531;SDS011;3299;42.004;24.868;2023-12-20T01:19:52;10.02;;;6.25;;
6531;SDS011;3299;42.004;24.868;2023-12-20T01:22:17;10.75;;;6.20;;
6531;SDS011;3299;42.004;24.868;2023-12-20T01:24:43;7.88;;;5.32;;
6531;SDS011;3299;42.004;24.868;2023-12-20T01:27:08;9.18;;;5.55;;
6531;SDS011;3299;42.004;24.868;2023-12-20T01:29:33;7.03;;;5.03;;
6531;SDS011;3299;42.004;24.868;2023-12-20T01:31:59;5.60;;;4.65;;
6531;SDS011;3299;42.004;24.868;2023-12-20T01:34:24;7.43;;;5.18;;
6531;SDS011;3299;42.004;24.868;2023-12-20T01:36:50;4.47;;;3.75;;
6531;SDS011;3299;42.004;24.868;2023-12-20T01:39:16;4.75;;;3.97;;
6531;SDS011;3299;42.004;24.868;2023-12-20T01:41:42;4.82;;;4.25;;
6531;SDS011;3299;42.004;24.868;2023-12-20T01:44:08;10.85;;;4.25;;
6531;SDS011;3299;42.004;24.868;2023-12-20T01:46:33;5.80;;;4.32;;
6531;SDS011;3299;42.004;24.868;2023-12-20T01:48:59;5.57;;;4.40;;
6531;SDS011;3299;42.004;24.868;2023-12-20T01:51:24;5.80;;;4.53;;
6531;SDS011;3299;42.004;24.868;2023-12-20T01:53:52;8.43;;;5.45;;
6531;SDS011;3299;42.004;24.868;2023-12-20T01:56:20;5.95;;;4.97;;
6531;SDS011;3299;42.004;24.868;2023-12-20T01:58:46;8.82;;;6.22;;
6531;SDS011;3299;42.004;24.868;2023-12-20T02:01:12;6.50;;;5.13;;
6531;SDS011;3299;42.004;24.868;2023-12-20T02:03:39;5.90;;;4.85;;
6531;SDS011;3299;42.004;24.868;2023-12-20T02:06:06;5.13;;;4.63;;
6531;SDS011;3299;42.004;24.868;2023-12-20T02:08:32;8.35;;;4.70;;
6531;SDS011;3299;42.004;24.868;2023-12-20T02:10:59;4.10;;;3.58;;
6531;SDS011;3299;42.004;24.868;2023-12-20T02:13:25;6.22;;;3.95;;
6531;SDS011;3299;42.004;24.868;2023-12-20T02:15:51;4.35;;;3.53;;
6531;SDS011;3299;42.004;24.868;2023-12-20T02:18:17;5.50;;;4.30;;
6531;SDS011;3299;42.004;24.868;2023-12-20T02:20:42;5.35;;;4.63;;
6531;SDS011;3299;42.004;24.868;2023-12-20T02:23:08;6.10;;;4.30;;
6531;SDS011;3299;42.004;24.868;2023-12-20T02:25:33;6.88;;;4.70;;
6531;SDS011;3299;42.004;24.868;2023-12-20T02:27:59;6.93;;;4.60;;
6531;SDS011;3299;42.004;24.868;2023-12-20T02:30:24;5.50;;;4.35;;
6531;SDS011;3299;42.004;24.868;2023-12-20T02:32:50;6.70;;;4.47;;
6531;SDS011;3299;42.004;24.868;2023-12-20T02:35:16;6.93;;;4.65;;
6531;SDS011;3299;42.004;24.868;2023-12-20T02:37:41;5.90;;;4.57;;
6531;SDS011;3299;42.004;24.868;2023-12-20T02:40:07;5.55;;;4.57;;
6531;SDS011;3299;42.004;24.868;2023-12-20T02:42:33;3.92;;;3.60;;
6531;SDS011;3299;42.004;24.868;2023-12-20T02:44:58;1.95;;;1.70;;
6531;SDS011;3299;42.004;24.868;2023-12-20T02:47:23;5.55;;;2.35;;
6531;SDS011;3299;42.004;24.868;2023-12-20T02:49:49;2.83;;;2.13;;
6531;SDS011;3299;42.004;24.868;2023-12-20T02:52:14;3.30;;;2.88;;
6531;SDS011;3299;42.004;24.868;2023-12-20T02:54:40;4.18;;;3.38;;
6531;SDS011;3299;42.004;24.868;2023-12-20T02:57:05;2.33;;;2.15;;
6531;SDS011;3299;42.004;24.868;2023-12-20T02:59:31;2.60;;;2.25;;
6531;SDS011;3299;42.004;24.868;2023-12-20T03:01:56;3.72;;;2.47;;
6531;SDS011;3299;42.004;24.868;2023-12-20T03:04:22;3.45;;;3.00;;
6531;SDS011;3299;42.004;24.868;2023-12-20T03:06:47;3.83;;;3.25;;
6531;SDS011;3299;42.004;24.868;2023-12-20T03:09:13;3.92;;;2.90;;
6531;SDS011;3299;42.004;24.868;2023-12-20T03:11:38;5.82;;;3.38;;
6531;SDS011;3299;42.004;24.868;2023-12-20T03:14:04;2.90;;;2.70;;
6531;SDS011;3299;42.004;24.868;2023-12-20T03:16:29;2.15;;;2.05;;
6531;SDS011;3299;42.004;24.868;2023-12-20T03:18:56;1.42;;;1.08;;
6531;SDS011;3299;42.004;24.868;2023-12-20T03:21:21;1.70;;;1.60;;
6531;SDS011;3299;42.004;24.868;2023-12-20T03:23:47;2.47;;;2.28;;
6531;SDS011;3299;42.004;24.868;2023-12-20T03:26:13;1.50;;;1.40;;
6531;SDS011;3299;42.004;24.868;2023-12-20T03:28:39;1.80;;;1.45;;
6531;SDS011;3299;42.004;24.868;2023-12-20T03:31:04;2.13;;;2.00;;
6531;SDS011;3299;42.004;24.868;2023-12-20T03:33:30;1.50;;;1.40;;
6531;SDS011;3299;42.004;24.868;2023-12-20T03:35:55;2.47;;;2.00;;
6531;SDS011;3299;42.004;24.868;2023-12-20T03:38:21;2.30;;;2.13;;
6531;SDS011;3299;42.004;24.868;2023-12-20T03:40:49;3.05;;;2.70;;
6531;SDS011;3299;42.004;24.868;2023-12-20T03:43:14;2.75;;;2.50;;
6531;SDS011;3299;42.004;24.868;2023-12-20T03:45:40;2.65;;;2.45;;
6531;SDS011;3299;42.004;24.868;2023-12-20T03:48:06;2.50;;;2.30;;
6531;SDS011;3299;42.004;24.868;2023-12-20T03:50:32;2.00;;;1.80;;
6531;SDS011;3299;42.004;24.868;2023-12-20T03:52:57;2.38;;;2.00;;
6531;SDS011;3299;42.004;24.868;2023-12-20T03:55:22;1.75;;;1.65;;
6531;SDS011;3299;42.004;24.868;2023-12-20T03:57:48;1.60;;;1.50;;
6531;SDS011;3299;42.004;24.868;2023-12-20T04:00:14;1.55;;;1.45;;
6531;SDS011;3299;42.004;24.868;2023-12-20T04:02:40;3.33;;;1.52;;
6531;SDS011;3299;42.004;24.868;2023-12-20T04:05:06;1.20;;;1.10;;
6531;SDS011;3299;42.004;24.868;2023-12-20T04:07:33;1.00;;;1.00;;
6531;SDS011;3299;42.004;24.868;2023-12-20T04:09:59;1.90;;;1.52;;
6531;SDS011;3299;42.004;24.868;2023-12-20T04:12:25;1.80;;;1.70;;
6531;SDS011;3299;42.004;24.868;2023-12-20T04:14:51;1.67;;;1.67;;
6531;SDS011;3299;42.004;24.868;2023-12-20T04:17:16;2.05;;;1.73;;
6531;SDS011;3299;42.004;24.868;2023-12-20T04:19:42;2.75;;;2.55;;
6531;SDS011;3299;42.004;24.868;2023-12-20T04:22:08;3.17;;;2.67;;
6531;SDS011;3299;42.004;24.868;2023-12-20T04:24:33;4.40;;;2.65;;
6531;SDS011;3299;42.004;24.868;2023-12-20T04:26:59;3.35;;;2.50;;
6531;SDS011;3299;42.004;24.868;2023-12-20T04:29:24;3.08;;;2.83;;
6531;SDS011;3299;42.004;24.868;2023-12-20T04:31:49;1.27;;;1.27;;
6531;SDS011;3299;42.004;24.868;2023-12-20T04:34:16;1.55;;;1.45;;
6531;SDS011;3299;42.004;24.868;2023-12-20T04:36:42;1.45;;;1.35;;
6531;SDS011;3299;42.004;24.868;2023-12-20T04:39:07;1.50;;;1.40;;
6531;SDS011;3299;42.004;24.868;2023-12-20T04:41:33;1.77;;;1.67;;
6531;SDS011;3299;42.004;24.868;2023-12-20T04:43:58;2.17;;;2.00;;
6531;SDS011;3299;42.004;24.868;2023-12-20T04:46:24;2.30;;;2.13;;
6531;SDS011;3299;42.004;24.868;2023-12-20T04:48:49;3.88;;;2.50;;
6531;SDS011;3299;42.004;24.868;2023-12-20T04:51:14;3.00;;;2.75;;
6531;SDS011;3299;42.004;24.868;2023-12-20T04:53:40;3.80;;;2.70;;
6531;SDS011;3299;42.004;24.868;2023-12-20T04:56:05;2.50;;;2.30;;
6531;SDS011;3299;42.004;24.868;2023-12-20T04:58:31;2.40;;;2.20;;
6531;SDS011;3299;42.004;24.868;2023-12-20T05:00:56;2.40;;;2.20;;
6531;SDS011;3299;42.004;24.868;2023-12-20T05:03:22;2.10;;;1.92;;
6531;SDS011;3299;42.004;24.868;2023-12-20T05:05:47;4.22;;;2.90;;
6531;SDS011;3299;42.004;24.868;2023-12-20T05:08:13;4.53;;;3.80;;
6531;SDS011;3299;42.004;24.868;2023-12-20T05:10:38;4.07;;;3.67;;
6531;SDS011;3299;42.004;24.868;2023-12-20T05:13:05;4.88;;;3.90;;
6531;SDS011;3299;42.004;24.868;2023-12-20T05:15:31;4.40;;;4.00;;
6531;SDS011;3299;42.004;24.868;2023-12-20T05:17:56;4.85;;;4.45;;
6531;SDS011;3299;42.004;24.868;2023-12-20T05:20:21;5.00;;;4.53;;
6531;SDS011;3299;42.004;24.868;2023-12-20T05:22:47;6.40;;;4.72;;
6531;SDS011;3299;42.004;24.868;2023-12-20T05:25:13;5.35;;;4.25;;
6531;SDS011;3299;42.004;24.868;2023-12-20T05:27:38;6.55;;;5.13;;
6531;SDS011;3299;42.004;24.868;2023-12-20T05:30:04;5.03;;;4.32;;
6531;SDS011;3299;42.004;24.868;2023-12-20T05:32:30;6.75;;;5.20;;
6531;SDS011;3299;42.004;24.868;2023-12-20T05:34:56;8.02;;;5.30;;
6531;SDS011;3299;42.004;24.868;2023-12-20T05:37:21;5.53;;;5.03;;
6531;SDS011;3299;42.004;24.868;2023-12-20T05:39:47;7.43;;;5.32;;
6531;SDS011;3299;42.004;24.868;2023-12-20T05:42:12;9.95;;;8.30;;
6531;SDS011;3299;42.004;24.868;2023-12-20T05:44:37;8.20;;;5.25;;
6531;SDS011;3299;42.004;24.868;2023-12-20T05:47:03;6.22;;;5.13;;
6531;SDS011;3299;42.004;24.868;2023-12-20T05:49:28;6.30;;;4.82;;
6531;SDS011;3299;42.004;24.868;2023-12-20T05:51:54;6.38;;;5.30;;
6531;SDS011;3299;42.004;24.868;2023-12-20T05:54:19;7.57;;;5.13;;
6531;SDS011;3299;42.004;24.868;2023-12-20T05:56:44;7.68;;;5.47;;
6531;SDS011;3299;42.004;24.868;2023-12-20T05:59:10;7.07;;;4.82;;
6531;SDS011;3299;42.004;24.868;2023-12-20T06:01:35;8.77;;;5.25;;
6531;SDS011;3299;42.004;24.868;2023-12-20T06:04:01;7.60;;;4.60;;
6531;SDS011;3299;42.004;24.868;2023-12-20T06:06:26;6.75;;;5.20;;
6531;SDS011;3299;42.004;24.868;2023-12-20T06:08:51;4.80;;;4.32;;
6531;SDS011;3299;42.004;24.868;2023-12-20T06:11:17;5.28;;;4.53;;
6531;SDS011;3299;42.004;24.868;2023-12-20T06:13:42;5.85;;;4.53;;
6531;SDS011;3299;42.004;24.868;2023-12-20T06:16:07;7.75;;;5.43;;
6531;SDS011;3299;42.004;24.868;2023-12-20T06:18:33;13.80;;;8.13;;
6531;SDS011;3299;42.004;24.868;2023-12-20T06:20:58;9.65;;;5.30;;
6531;SDS011;3299;42.004;24.868;2023-12-20T06:23:24;10.80;;;6.78;;
6531;SDS011;3299;42.004;24.868;2023-12-20T06:25:49;9.60;;;7.32;;
6531;SDS011;3299;42.004;24.868;2023-12-20T06:28:14;11.70;;;6.20;;
6531;SDS011;3299;42.004;24.868;2023-12-20T06:30:40;8.38;;;5.32;;
6531;SDS011;3299;42.004;24.868;2023-12-20T06:33:06;6.97;;;5.50;;
6531;SDS011;3299;42.004;24.868;2023-12-20T06:35:32;7.80;;;5.50;;
6531;SDS011;3299;42.004;24.868;2023-12-20T06:37:57;7.30;;;5.65;;
6531;SDS011;3299;42.004;24.868;2023-12-20T06:40:23;8.85;;;5.28;;
6531;SDS011;3299;42.004;24.868;2023-12-20T06:42:48;8.80;;;6.63;;
6531;SDS011;3299;42.004;24.868;2023-12-20T06:45:14;10.85;;;6.50;;
6531;SDS011;3299;42.004;24.868;2023-12-20T06:47:39;13.60;;;8.18;;
6531;SDS011;3299;42.004;24.868;2023-12-20T06:50:05;14.13;;;7.97;;
6531;SDS011;3299;42.004;24.868;2023-12-20T06:52:30;10.90;;;7.25;;
6531;SDS011;3299;42.004;24.868;2023-12-20T06:54:56;12.85;;;8.05;;
6531;SDS011;3299;42.004;24.868;2023-12-20T06:57:21;9.88;;;7.25;;
6531;SDS011;3299;42.004;24.868;2023-12-20T06:59:47;9.57;;;5.90;;
6531;SDS011;3299;42.004;24.868;2023-12-20T07:02:12;9.43;;;5.65;;
6531;SDS011;3299;42.004;24.868;2023-12-20T07:04:41;4.80;;;3.47;;
6531;SDS011;3299;42.004;24.868;2023-12-20T07:07:06;3.92;;;3.22;;
6531;SDS011;3299;42.004;24.868;2023-12-20T07:09:32;3.35;;;2.75;;
6531;SDS011;3299;42.004;24.868;2023-12-20T07:11:58;2.67;;;1.92;;
6531;SDS011;3299;42.004;24.868;2023-12-20T07:14:24;1.20;;;1.20;;
6531;SDS011;3299;42.004;24.868;2023-12-20T07:16:49;1.70;;;1.60;;
6531;SDS011;3299;42.004;24.868;2023-12-20T07:19:14;1.70;;;1.60;;
6531;SDS011;3299;42.004;24.868;2023-12-20T07:21:40;2.40;;;2.20;;
6531;SDS011;3299;42.004;24.868;2023-12-20T07:24:05;7.72;;;5.72;;
6531;SDS011;3299;42.004;24.868;2023-12-20T07:26:31;6.35;;;4.55;;
6531;SDS011;3299;42.004;24.868;2023-12-20T07:28:56;11.50;;;7.00;;
6531;SDS011;3299;42.004;24.868;2023-12-20T07:31:23;13.15;;;7.90;;
6531;SDS011;3299;42.004;24.868;2023-12-20T07:33:49;12.07;;;7.32;;
6531;SDS011;3299;42.004;24.868;2023-12-20T07:36:14;4.00;;;3.65;;
6531;SDS011;3299;42.004;24.868;2023-12-20T07:38:40;7.63;;;3.78;;
6531;SDS011;3299;42.004;24.868;2023-12-20T07:41:08;6.57;;;3.55;;
6531;SDS011;3299;42.004;24.868;2023-12-20T07:43:34;2.60;;;2.22;;
6531;SDS011;3299;42.004;24.868;2023-12-20T07:46:03;4.20;;;2.38;;
6531;SDS011;3299;42.004;24.868;2023-12-20T07:48:30;3.00;;;2.65;;
6531;SDS011;3299;42.004;24.868;2023-12-20T07:50:55;5.57;;;3.15;;
6531;SDS011;3299;42.004;24.868;2023-12-20T07:53:21;6.13;;;3.17;;
6531;SDS011;3299;42.004;24.868;2023-12-20T07:55:46;21.98;;;12.35;;
6531;SDS011;3299;42.004;24.868;2023-12-20T07:58:11;24.25;;;15.40;;
6531;SDS011;3299;42.004;24.868;2023-12-20T08:00:37;41.58;;;23.00;;
6531;SDS011;3299;42.004;24.868;2023-12-20T08:03:03;47.33;;;25.88;;
6531;SDS011;3299;42.004;24.868;2023-12-20T08:05:28;64.57;;;31.23;;
6531;SDS011;3299;42.004;24.868;2023-12-20T08:07:54;54.25;;;29.05;;
6531;SDS011;3299;42.004;24.868;2023-12-20T08:10:19;49.97;;;29.10;;
6531;SDS011;3299;42.004;24.868;2023-12-20T08:12:44;45.75;;;26.92;;
6531;SDS011;3299;42.004;24.868;2023-12-20T08:15:10;47.95;;;26.90;;
6531;SDS011;3299;42.004;24.868;2023-12-20T08:17:35;49.50;;;27.15;;
6531;SDS011;3299;42.004;24.868;2023-12-20T08:20:01;33.70;;;18.92;;
6531;SDS011;3299;42.004;24.868;2023-12-20T08:22:26;27.15;;;16.50;;
6531;SDS011;3299;42.004;24.868;2023-12-20T08:24:51;33.95;;;17.63;;
6531;SDS011;3299;42.004;24.868;2023-12-20T08:27:17;32.95;;;17.83;;
6531;SDS011;3299;42.004;24.868;2023-12-20T08:29:43;30.05;;;17.70;;
6531;SDS011;3299;42.004;24.868;2023-12-20T08:32:10;31.00;;;16.55;;
6531;SDS011;3299;42.004;24.868;2023-12-20T08:34:35;28.20;;;16.70;;
6531;SDS011;3299;42.004;24.868;2023-12-20T08:37:00;21.92;;;14.85;;
6531;SDS011;3299;42.004;24.868;2023-12-20T08:39:26;26.25;;;15.77;;
6531;SDS011;3299;42.004;24.868;2023-12-20T08:41:51;28.10;;;17.17;;
6531;SDS011;3299;42.004;24.868;2023-12-20T08:44:17;32.15;;;18.27;;
6531;SDS011;3299;42.004;24.868;2023-12-20T08:46:42;31.88;;;16.80;;
6531;SDS011;3299;42.004;24.868;2023-12-20T08:49:08;30.80;;;16.23;;
6531;SDS011;3299;42.004;24.868;2023-12-20T08:51:34;26.35;;;16.15;;
6531;SDS011;3299;42.004;24.868;2023-12-20T08:54:00;27.13;;;15.40;;
6531;SDS011;3299;42.004;24.868;2023-12-20T08:56:25;23.48;;;15.43;;
6531;SDS011;3299;42.004;24.868;2023-12-20T08:58:50;27.67;;;15.35;;
6531;SDS011;3299;42.004;24.868;2023-12-20T09:01:16;25.80;;;14.13;;
6531;SDS011;3299;42.004;24.868;2023-12-20T09:03:41;29.00;;;16.83;;
6531;SDS011;3299;42.004;24.868;2023-12-20T09:06:07;26.33;;;16.13;;
6531;SDS011;3299;42.004;24.868;2023-12-20T09:08:32;30.00;;;16.85;;
6531;SDS011;3299;42.004;24.868;2023-12-20T09:10:59;27.02;;;16.23;;
6531;SDS011;3299;42.004;24.868;2023-12-20T09:13:24;22.95;;;15.77;;
6531;SDS011;3299;42.004;24.868;2023-12-20T09:15:56;24.25;;;14.70;;
6531;SDS011;3299;42.004;24.868;2023-12-20T09:18:21;27.83;;;13.82;;
6531;SDS011;3299;42.004;24.868;2023-12-20T09:20:47;25.80;;;14.63;;
6531;SDS011;3299;42.004;24.868;2023-12-20T09:23:12;24.00;;;14.00;;
6531;SDS011;3299;42.004;24.868;2023-12-20T09:25:38;27.70;;;14.52;;
6531;SDS011;3299;42.004;24.868;2023-12-20T09:28:03;25.35;;;15.65;;
6531;SDS011;3299;42.004;24.868;2023-12-20T09:30:29;27.33;;;14.82;;
6531;SDS011;3299;42.004;24.868;2023-12-20T09:32:54;28.45;;;14.90;;
6531;SDS011;3299;42.004;24.868;2023-12-20T09:35:20;30.05;;;15.00;;
6531;SDS011;3299;42.004;24.868;2023-12-20T09:37:45;22.60;;;14.05;;
6531;SDS011;3299;42.004;24.868;2023-12-20T09:40:12;31.58;;;16.58;;
6531;SDS011;3299;42.004;24.868;2023-12-20T09:45:23;24.17;;;15.60;;
6531;SDS011;3299;42.004;24.868;2023-12-20T09:47:52;27.38;;;15.40;;
6531;SDS011;3299;42.004;24.868;2023-12-20T09:50:19;27.63;;;15.05;;
6531;SDS011;3299;42.004;24.868;2023-12-20T09:52:46;24.13;;;14.30;;
6531;SDS011;3299;42.004;24.868;2023-12-20T09:55:18;20.10;;;12.52;;
6531;SDS011;3299;42.004;24.868;2023-12-20T09:57:45;20.70;;;12.35;;
6531;SDS011;3299;42.004;24.868;2023-12-20T10:00:14;18.73;;;12.27;;
6531;SDS011;3299;42.004;24.868;2023-12-20T10:02:42;22.15;;;11.90;;
6531;SDS011;3299;42.004;24.868;2023-12-20T10:05:15;20.33;;;11.95;;
6531;SDS011;3299;42.004;24.868;2023-12-20T10:07:45;20.60;;;11.98;;
6531;SDS011;3299;42.004;24.868;2023-12-20T10:10:14;19.95;;;11.90;;
6531;SDS011;3299;42.004;24.868;2023-12-20T10:12:39;22.70;;;13.05;;
6531;SDS011;3299;42.004;24.868;2023-12-20T10:15:05;19.83;;;12.50;;
6531;SDS011;3299;42.004;24.868;2023-12-20T10:17:31;21.42;;;12.15;;
6531;SDS011;3299;42.004;24.868;2023-12-20T10:19:57;22.30;;;11.85;;
6531;SDS011;3299;42.004;24.868;2023-12-20T10:22:23;25.92;;;12.00;;
6531;SDS011;3299;42.004;24.868;2023-12-20T10:24:48;21.25;;;11.48;;
6531;SDS011;3299;42.004;24.868;2023-12-20T10:27:14;21.38;;;11.65;;
6531;SDS011;3299;42.004;24.868;2023-12-20T10:29:39;17.88;;;11.02;;
6531;SDS011;3299;42.004;24.868;2023-12-20T10:32:24;20.85;;;11.93;;
6531;SDS011;3299;42.004;24.868;2023-12-20T10:34:50;17.65;;;10.93;;
6531;SDS011;3299;42.004;24.868;2023-12-20T10:37:16;17.65;;;11.75;;
6531;SDS011;3299;42.004;24.868;2023-12-20T10:39:42;20.25;;;12.13;;
6531;SDS011;3299;42.004;24.868;2023-12-20T10:42:09;23.00;;;12.40;;
6531;SDS011;3299;42.004;24.868;2023-12-20T10:44:36;18.38;;;11.63;;
6531;SDS011;3299;42.004;24.868;2023-12-20T10:47:02;22.13;;;12.98;;
6531;SDS011;3299;42.004;24.868;2023-12-20T10:49:29;25.38;;;11.82;;
6531;SDS011;3299;42.004;24.868;2023-12-20T10:51:56;21.30;;;11.90;;
6531;SDS011;3299;42.004;24.868;2023-12-20T10:54:24;19.40;;;12.00;;
6531;SDS011;3299;42.004;24.868;2023-12-20T10:56:50;17.38;;;12.07;;
6531;SDS011;3299;42.004;24.868;2023-12-20T10:59:17;23.95;;;12.85;;
6531;SDS011;3299;42.004;24.868;2023-12-20T11:01:45;23.23;;;12.68;;
6531;SDS011;3299;42.004;24.868;2023-12-20T11:04:13;21.08;;;13.00;;
6531;SDS011;3299;42.004;24.868;2023-12-20T11:06:54;29.88;;;14.77;;
6531;SDS011;3299;42.004;24.868;2023-12-20T11:09:27;22.83;;;14.50;;
6531;SDS011;3299;42.004;24.868;2023-12-20T11:12:18;20.77;;;14.32;;
6531;SDS011;3299;42.004;24.868;2023-12-20T11:14:51;22.60;;;14.20;;
6531;SDS011;3299;42.004;24.868;2023-12-20T11:17:20;20.38;;;14.13;;
6531;SDS011;3299;42.004;24.868;2023-12-20T11:22:17;28.13;;;15.77;;
6531;SDS011;3299;42.004;24.868;2023-12-20T11:24:45;24.40;;;14.10;;
6531;SDS011;3299;42.004;24.868;2023-12-20T11:27:12;21.27;;;13.35;;
6531;SDS011;3299;42.004;24.868;2023-12-20T11:29:38;23.13;;;13.23;;
6531;SDS011;3299;42.004;24.868;2023-12-20T11:34:50;21.30;;;14.23;;
6531;SDS011;3299;42.004;24.868;2023-12-20T11:37:19;20.27;;;13.15;;
6531;SDS011;3299;42.004;24.868;2023-12-20T11:39:45;21.05;;;12.65;;
6531;SDS011;3299;42.004;24.868;2023-12-20T11:42:10;20.55;;;11.95;;
6531;SDS011;3299;42.004;24.868;2023-12-20T11:44:36;17.95;;;11.68;;
6531;SDS011;3299;42.004;24.868;2023-12-20T11:47:02;19.67;;;12.30;;
6531;SDS011;3299;42.004;24.868;2023-12-20T11:49:28;16.95;;;12.30;;
6531;SDS011;3299;42.004;24.868;2023-12-20T11:51:55;18.35;;;11.15;;
6531;SDS011;3299;42.004;24.868;2023-12-20T11:54:21;13.13;;;10.18;;
6531;SDS011;3299;42.004;24.868;2023-12-20T11:56:47;19.75;;;11.55;;
6531;SDS011;3299;42.004;24.868;2023-12-20T11:59:13;16.45;;;11.00;;
6531;SDS011;3299;42.004;24.868;2023-12-20T12:01:40;16.15;;;11.27;;
6531;SDS011;3299;42.004;24.868;2023-12-20T12:04:14;17.40;;;11.98;;
6531;SDS011;3299;42.004;24.868;2023-12-20T12:06:40;16.40;;;11.63;;
6531;SDS011;3299;42.004;24.868;2023-12-20T12:09:05;18.23;;;11.77;;
6531;SDS011;3299;42.004;24.868;2023-12-20T12:11:31;16.15;;;11.25;;
6531;SDS011;3299;42.004;24.868;2023-12-20T12:13:56;22.88;;;12.27;;
6531;SDS011;3299;42.004;24.868;2023-12-20T12:16:22;17.98;;;11.93;;
6531;SDS011;3299;42.004;24.868;2023-12-20T12:18:55;20.98;;;12.73;;
6531;SDS011;3299;42.004;24.868;2023-12-20T12:21:21;21.40;;;11.63;;
6531;SDS011;3299;42.004;24.868;2023-12-20T12:23:46;18.77;;;11.90;;
6531;SDS011;3299;42.004;24.868;2023-12-20T12:26:11;17.70;;;12.40;;
6531;SDS011;3299;42.004;24.868;2023-12-20T12:28:39;17.50;;;12.02;;
6531;SDS011;3299;42.004;24.868;2023-12-20T12:31:06;20.83;;;12.88;;
6531;SDS011;3299;42.004;24.868;2023-12-20T12:33:32;20.02;;;12.18;;
6531;SDS011;3299;42.004;24.868;2023-12-20T12:35:57;16.23;;;12.15;;
6531;SDS011;3299;42.004;24.868;2023-12-20T12:38:26;18.30;;;11.95;;
6531;SDS011;3299;42.004;24.868;2023-12-20T12:40:51;21.42;;;13.05;;
6531;SDS011;3299;42.004;24.868;2023-12-20T12:43:18;20.42;;;12.90;;
6531;SDS011;3299;42.004;24.868;2023-12-20T12:45:44;20.23;;;12.88;;
6531;SDS011;3299;42.004;24.868;2023-12-20T12:48:09;18.70;;;12.27;;
6531;SDS011;3299;42.004;24.868;2023-12-20T12:50:35;17.40;;;12.05;;
6531;SDS011;3299;42.004;24.868;2023-12-20T12:53:00;21.40;;;13.10;;
6531;SDS011;3299;42.004;24.868;2023-12-20T12:55:27;18.65;;;13.75;;
6531;SDS011;3299;42.004;24.868;2023-12-20T12:57:53;20.35;;;13.13;;
6531;SDS011;3299;42.004;24.868;2023-12-20T13:00:19;23.23;;;14.38;;
6531;SDS011;3299;42.004;24.868;2023-12-20T13:02:44;25.88;;;14.68;;
6531;SDS011;3299;42.004;24.868;2023-12-20T13:05:10;21.02;;;14.68;;
6531;SDS011;3299;42.004;24.868;2023-12-20T13:07:35;27.52;;;15.73;;
6531;SDS011;3299;42.004;24.868;2023-12-20T13:10:02;22.08;;;15.70;;
6531;SDS011;3299;42.004;24.868;2023-12-20T13:12:28;23.73;;;15.75;;
6531;SDS011;3299;42.004;24.868;2023-12-20T13:14:54;21.58;;;14.05;;
6531;SDS011;3299;42.004;24.868;2023-12-20T13:17:20;26.60;;;15.80;;
6531;SDS011;3299;42.004;24.868;2023-12-20T13:19:45;27.13;;;16.38;;
6531;SDS011;3299;42.004;24.868;2023-12-20T13:22:11;36.65;;;24.52;;
6531;SDS011;3299;42.004;24.868;2023-12-20T13:24:36;27.02;;;18.05;;
6531;SDS011;3299;42.004;24.868;2023-12-20T13:27:01;28.50;;;18.70;;
6531;SDS011;3299;42.004;24.868;2023-12-20T13:29:27;41.80;;;26.50;;
6531;SDS011;3299;42.004;24.868;2023-12-20T13:31:52;37.05;;;22.85;;
6531;SDS011;3299;42.004;24.868;2023-12-20T13:34:18;26.50;;;16.35;;
6531;SDS011;3299;42.004;24.868;2023-12-20T13:36:44;40.60;;;25.48;;
6531;SDS011;3299;42.004;24.868;2023-12-20T13:39:15;37.30;;;23.33;;
6531;SDS011;3299;42.004;24.868;2023-12-20T13:41:40;27.75;;;16.88;;
6531;SDS011;3299;42.004;24.868;2023-12-20T13:44:05;26.48;;;16.13;;
6531;SDS011;3299;42.004;24.868;2023-12-20T13:46:31;27.02;;;15.68;;
6531;SDS011;3299;42.004;24.868;2023-12-20T13:48:56;22.83;;;16.05;;
6531;SDS011;3299;42.004;24.868;2023-12-20T13:51:22;60.72;;;37.20;;
6531;SDS011;3299;42.004;24.868;2023-12-20T13:53:47;45.80;;;25.70;;
6531;SDS011;3299;42.004;24.868;2023-12-20T13:56:13;38.70;;;22.88;;
6531;SDS011;3299;42.004;24.868;2023-12-20T13:58:39;34.80;;;21.95;;
6531;SDS011;3299;42.004;24.868;2023-12-20T14:01:06;31.10;;;20.80;;
6531;SDS011;3299;42.004;24.868;2023-12-20T14:03:33;30.88;;;21.20;;
6531;SDS011;3299;42.004;24.868;2023-12-20T14:05:59;29.70;;;19.33;;
6531;SDS011;3299;42.004;24.868;2023-12-20T14:08:26;27.15;;;18.95;;
6531;SDS011;3299;42.004;24.868;2023-12-20T14:10:52;29.17;;;19.27;;
6531;SDS011;3299;42.004;24.868;2023-12-20T14:13:17;29.73;;;20.25;;
6531;SDS011;3299;42.004;24.868;2023-12-20T14:15:43;26.52;;;17.98;;
6531;SDS011;3299;42.004;24.868;2023-12-20T14:18:09;32.92;;;20.33;;
6531;SDS011;3299;42.004;24.868;2023-12-20T14:20:35;30.23;;;19.38;;
6531;SDS011;3299;42.004;24.868;2023-12-20T14:23:03;25.50;;;16.52;;
6531;SDS011;3299;42.004;24.868;2023-12-20T14:25:29;26.25;;;17.35;;
6531;SDS011;3299;42.004;24.868;2023-12-20T14:27:54;23.40;;;15.63;;
6531;SDS011;3299;42.004;24.868;2023-12-20T14:30:21;27.58;;;15.77;;
6531;SDS011;3299;42.004;24.868;2023-12-20T14:32:46;25.80;;;17.45;;
6531;SDS011;3299;42.004;24.868;2023-12-20T14:35:13;27.05;;;16.00;;
6531;SDS011;3299;42.004;24.868;2023-12-20T14:37:38;25.50;;;16.48;;
6531;SDS011;3299;42.004;24.868;2023-12-20T14:40:06;24.55;;;15.88;;
6531;SDS011;3299;42.004;24.868;2023-12-20T14:42:32;23.80;;;15.80;;
6531;SDS011;3299;42.004;24.868;2023-12-20T14:44:58;22.30;;;15.05;;
6531;SDS011;3299;42.004;24.868;2023-12-20T14:47:23;22.83;;;15.70;;
6531;SDS011;3299;42.004;24.868;2023-12-20T14:49:50;39.67;;;20.42;;